sensor_id;sensor_type;location;lat;lon;timestamp;pressure;altitude;pressure_sealevel;temperature
76347;BMP280;73309;48.818;9.806;2023-12-20T00:01:25;96316.31;;;8.23
76347;BMP280;73309;48.818;9.806;2023-12-20T00:03:50;96324.28;;;8.24
76347;BMP280;73309;48.818;9.806;2023-12-20T00:06:15;96313.31;;;8.26
76347;BMP280;73309;48.818;9.806;2023-12-20T00:08:42;96320.47;;;8.27
76347;BMP280;73309;48.818;9.806;2023-12-20T00:11:07;96282.88;;;8.10
76347;BMP280;73309;48.818;9.806;2023-12-20T00:13:33;96312.53;;;8.26
76347;BMP280;73309;48.818;9.806;2023-12-20T00:15:58;96302.38;;;8.28
76347;BMP280;73309;48.818;9.806;2023-12-20T00:18:24;96295.16;;;8.27
76347;BMP280;73309;48.818;9.806;2023-12-20T00:20:49;96292.88;;;8.26
76347;BMP280;73309;48.818;9.806;2023-12-20T00:23:15;96290.34;;;8.28
76347;BMP280;73309;48.818;9.806;2023-12-20T00:25:41;96283.94;;;8.27
76347;BMP280;73309;48.818;9.806;2023-12-20T00:28:07;96266.03;;;8.10
76347;BMP280;73309;48.818;9.806;2023-12-20T00:30:32;96287.53;;;8.28
76347;BMP280;73309;48.818;9.806;2023-12-20T00:32:58;96277.06;;;8.28
76347;BMP280;73309;48.818;9.806;2023-12-20T00:35:23;96279.09;;;8.28
76347;BMP280;73309;48.818;9.806;2023-12-20T00:37:49;96277.06;;;8.28
76347;BMP280;73309;48.818;9.806;2023-12-20T00:40:14;96277.81;;;8.29
76347;BMP280;73309;48.818;9.806;2023-12-20T00:42:41;96277.06;;;8.28
76347;BMP280;73309;48.818;9.806;2023-12-20T00:45:07;96263.78;;;8.14
76347;BMP280;73309;48.818;9.806;2023-12-20T00:47:32;96271.44;;;8.28
76347;BMP280;73309;48.818;9.806;2023-12-20T00:49:58;96264.25;;;8.27
76347;BMP280;73309;48.818;9.806;2023-12-20T00:52:23;96256.81;;;8.24
76347;BMP280;73309;48.818;9.806;2023-12-20T00:54:49;96248.66;;;8.26
76347;BMP280;73309;48.818;9.806;2023-12-20T00:57:14;96254.00;;;8.24
76347;BMP280;73309;48.818;9.806;2023-12-20T00:59:41;96242.28;;;8.26
76347;BMP280;73309;48.818;9.806;2023-12-20T01:02:06;96251.19;;;8.24
76347;BMP280;73309;48.818;9.806;2023-12-20T01:04:32;96254.78;;;8.25
76347;BMP280;73309;48.818;9.806;2023-12-20T01:06:57;96259.16;;;8.26
76347;BMP280;73309;48.818;9.806;2023-12-20T01:09:23;96268.06;;;8.24
76347;BMP280;73309;48.818;9.806;2023-12-20T01:11:48;96269.31;;;8.23
76347;BMP280;73309;48.818;9.806;2023-12-20T01:14:14;96264.97;;;8.22
76347;BMP280;73309;48.818;9.806;2023-12-20T01:16:40;96263.72;;;8.23
76347;BMP280;73309;48.818;9.806;2023-12-20T01:19:06;96268.06;;;8.24
76347;BMP280;73309;48.818;9.806;2023-12-20T01:21:31;96251.69;;;8.23
76347;BMP280;73309;48.818;9.806;2023-12-20T01:23:56;96254.50;;;8.23
76347;BMP280;73309;48.818;9.806;2023-12-20T01:26:22;96242.50;;;8.22
76347;BMP280;73309;48.818;9.806;2023-12-20T01:28:47;96245.13;;;8.11
76347;BMP280;73309;48.818;9.806;2023-12-20T01:31:13;96249.34;;;8.21
76347;BMP280;73309;48.818;9.806;2023-12-20T01:33:39;96257.78;;;8.21
76347;BMP280;73309;48.818;9.806;2023-12-20T01:36:05;96268.25;;;8.21
76347;BMP280;73309;48.818;9.806;2023-12-20T01:38:30;96276.69;;;8.21
76347;BMP280;73309;48.818;9.806;2023-12-20T01:40:56;96275.91;;;8.20
76347;BMP280;73309;48.818;9.806;2023-12-20T01:43:21;96273.56;;;8.19
76347;BMP280;73309;48.818;9.806;2023-12-20T01:45:47;96278.72;;;8.20
76347;BMP280;73309;48.818;9.806;2023-12-20T01:48:12;96284.78;;;8.19
76347;BMP280;73309;48.818;9.806;2023-12-20T01:50:39;96275.34;;;8.16
76347;BMP280;73309;48.818;9.806;2023-12-20T01:53:07;96277.63;;;8.18
76347;BMP280;73309;48.818;9.806;2023-12-20T01:55:35;96227.56;;;7.82
76347;BMP280;73309;48.818;9.806;2023-12-20T01:58:01;96237.91;;;7.90
76347;BMP280;73309;48.818;9.806;2023-12-20T02:00:27;96280.94;;;8.16
76347;BMP280;73309;48.818;9.806;2023-12-20T02:02:54;96277.84;;;8.14
76347;BMP280;73309;48.818;9.806;2023-12-20T02:05:20;96289.38;;;8.16
76347;BMP280;73309;48.818;9.806;2023-12-20T02:07:47;96275.34;;;8.16
76347;BMP280;73309;48.818;9.806;2023-12-20T02:10:12;96271.75;;;8.16
76347;BMP280;73309;48.818;9.806;2023-12-20T02:12:38;96264.56;;;8.15
76347;BMP280;73309;48.818;9.806;2023-12-20T02:15:04;96260.97;;;8.14
76347;BMP280;73309;48.818;9.806;2023-12-20T02:17:31;96265.06;;;8.13
76347;BMP280;73309;48.818;9.806;2023-12-20T02:19:57;96264.28;;;8.13
76347;BMP280;73309;48.818;9.806;2023-12-20T02:22:23;96240.97;;;7.92
76347;BMP280;73309;48.818;9.806;2023-12-20T02:24:49;96263.50;;;8.12
76347;BMP280;73309;48.818;9.806;2023-12-20T02:27:15;96243.59;;;7.96
76347;BMP280;73309;48.818;9.806;2023-12-20T02:29:43;96266.81;;;8.11
76347;BMP280;73309;48.818;9.806;2023-12-20T02:32:08;96265.25;;;8.10
76347;BMP280;73309;48.818;9.806;2023-12-20T02:34:33;96260.59;;;8.07
76347;BMP280;73309;48.818;9.806;2023-12-20T02:36:59;96266.03;;;8.10
76347;BMP280;73309;48.818;9.806;2023-12-20T02:39:26;96266.53;;;8.09
76347;BMP280;73309;48.818;9.806;2023-12-20T02:41:51;96266.53;;;8.09
76347;BMP280;73309;48.818;9.806;2023-12-20T02:44:16;96269.34;;;8.09
76347;BMP280;73309;48.818;9.806;2023-12-20T02:46:42;96268.56;;;8.08
76347;BMP280;73309;48.818;9.806;2023-12-20T02:49:07;96258.09;;;8.09
76347;BMP280;73309;48.818;9.806;2023-12-20T02:51:33;96269.34;;;8.09
76347;BMP280;73309;48.818;9.806;2023-12-20T02:53:58;96266.22;;;8.07
76347;BMP280;73309;48.818;9.806;2023-12-20T02:56:25;96271.38;;;8.08
76347;BMP280;73309;48.818;9.806;2023-12-20T02:58:50;96267.00;;;8.07
76347;BMP280;73309;48.818;9.806;2023-12-20T03:01:15;96267.97;;;8.04
76347;BMP280;73309;48.818;9.806;2023-12-20T03:03:41;96268.28;;;8.06
76347;BMP280;73309;48.818;9.806;2023-12-20T03:06:06;96268.75;;;8.05
76347;BMP280;73309;48.818;9.806;2023-12-20T03:08:32;96270.78;;;8.04
76347;BMP280;73309;48.818;9.806;2023-12-20T03:10:59;96263.94;;;8.05
76347;BMP280;73309;48.818;9.806;2023-12-20T03:13:25;96259.28;;;8.02
76347;BMP280;73309;48.818;9.806;2023-12-20T03:15:51;96245.06;;;7.91
76347;BMP280;73309;48.818;9.806;2023-12-20T03:18:16;96272.06;;;8.03
76347;BMP280;73309;48.818;9.806;2023-12-20T03:20:42;96274.88;;;8.03
76347;BMP280;73309;48.818;9.806;2023-12-20T03:23:07;96274.88;;;8.03
76347;BMP280;73309;48.818;9.806;2023-12-20T03:25:32;96273.59;;;8.04
76347;BMP280;73309;48.818;9.806;2023-12-20T03:27:58;96252.22;;;7.92
76347;BMP280;73309;48.818;9.806;2023-12-20T03:30:24;96265.69;;;8.03
76347;BMP280;73309;48.818;9.806;2023-12-20T03:32:50;96272.06;;;8.03
76347;BMP280;73309;48.818;9.806;2023-12-20T03:35:15;96277.66;;;8.03
76347;BMP280;73309;48.818;9.806;2023-12-20T03:37:41;96260.84;;;7.89
76347;BMP280;73309;48.818;9.806;2023-12-20T03:40:07;96258.72;;;7.84
76347;BMP280;73309;48.818;9.806;2023-12-20T03:42:32;96281.75;;;8.02
76347;BMP280;73309;48.818;9.806;2023-12-20T03:44:57;96280.97;;;8.02
76347;BMP280;73309;48.818;9.806;2023-12-20T03:47:24;96273.78;;;8.01
76347;BMP280;73309;48.818;9.806;2023-12-20T03:49:50;96287.38;;;8.02
76347;BMP280;73309;48.818;9.806;2023-12-20T03:52:15;96276.06;;;7.97
76347;BMP280;73309;48.818;9.806;2023-12-20T03:54:40;96285.81;;;8.01
76347;BMP280;73309;48.818;9.806;2023-12-20T03:57:06;96279.63;;;7.97
76347;BMP280;73309;48.818;9.806;2023-12-20T03:59:34;96226.91;;;7.58
76347;BMP280;73309;48.818;9.806;2023-12-20T04:02:00;96287.56;;;7.99
76347;BMP280;73309;48.818;9.806;2023-12-20T04:04:27;96249.38;;;7.72
76347;BMP280;73309;48.818;9.806;2023-12-20T04:06:52;96292.59;;;7.95
76347;BMP280;73309;48.818;9.806;2023-12-20T04:09:17;96290.59;;;7.95
76347;BMP280;73309;48.818;9.806;2023-12-20T04:11:43;96289.31;;;7.96
76347;BMP280;73309;48.818;9.806;2023-12-20T04:14:08;96289.53;;;7.93
76347;BMP280;73309;48.818;9.806;2023-12-20T04:16:34;96302.78;;;7.92
76347;BMP280;73309;48.818;9.806;2023-12-20T04:19:00;96299.97;;;7.92
76347;BMP280;73309;48.818;9.806;2023-12-20T04:21:26;96306.84;;;7.91
76347;BMP280;73309;48.818;9.806;2023-12-20T04:23:52;96301.72;;;7.90
76347;BMP280;73309;48.818;9.806;2023-12-20T04:26:17;96299.69;;;7.90
76347;BMP280;73309;48.818;9.806;2023-12-20T04:28:42;96305.78;;;7.89
76347;BMP280;73309;48.818;9.806;2023-12-20T04:31:08;96288.28;;;7.79
76347;BMP280;73309;48.818;9.806;2023-12-20T04:33:33;96271.91;;;7.63
76347;BMP280;73309;48.818;9.806;2023-12-20T04:35:59;96309.38;;;7.89
76347;BMP280;73309;48.818;9.806;2023-12-20T04:38:25;96309.38;;;7.89
76347;BMP280;73309;48.818;9.806;2023-12-20T04:40:51;96308.31;;;7.87
76347;BMP280;73309;48.818;9.806;2023-12-20T04:43:17;96308.31;;;7.87
76347;BMP280;73309;48.818;9.806;2023-12-20T04:45:42;96310.81;;;7.85
76347;BMP280;73309;48.818;9.806;2023-12-20T04:48:07;96334.06;;;7.85
76347;BMP280;73309;48.818;9.806;2023-12-20T04:50:33;96324.09;;;7.84
76347;BMP280;73309;48.818;9.806;2023-12-20T04:52:58;96302.06;;;7.63
76347;BMP280;73309;48.818;9.806;2023-12-20T04:55:25;96324.31;;;7.81
76347;BMP280;73309;48.818;9.806;2023-12-20T04:57:50;96331.94;;;7.80
76347;BMP280;73309;48.818;9.806;2023-12-20T05:00:16;96330.41;;;7.79
76347;BMP280;73309;48.818;9.806;2023-12-20T05:02:41;96331.19;;;7.80
76347;BMP280;73309;48.818;9.806;2023-12-20T05:05:07;96332.72;;;7.81
76347;BMP280;73309;48.818;9.806;2023-12-20T05:07:33;96260.81;;;7.25
76347;BMP280;73309;48.818;9.806;2023-12-20T05:09:58;96340.38;;;7.80
76347;BMP280;73309;48.818;9.806;2023-12-20T05:12:25;96345.97;;;7.80
76347;BMP280;73309;48.818;9.806;2023-12-20T05:14:51;96331.66;;;7.78
76347;BMP280;73309;48.818;9.806;2023-12-20T05:17:17;96333.41;;;7.76
76347;BMP280;73309;48.818;9.806;2023-12-20T05:19:42;96341.84;;;7.76
76347;BMP280;73309;48.818;9.806;2023-12-20T05:22:07;96336.22;;;7.76
76347;BMP280;73309;48.818;9.806;2023-12-20T05:24:33;96320.91;;;7.62
76347;BMP280;73309;48.818;9.806;2023-12-20T05:26:58;96345.91;;;7.75
76347;BMP280;73309;48.818;9.806;2023-12-20T05:29:25;96356.63;;;7.76
76347;BMP280;73309;48.818;9.806;2023-12-20T05:31:50;96357.13;;;7.75
76347;BMP280;73309;48.818;9.806;2023-12-20T05:34:16;96357.13;;;7.75
76347;BMP280;73309;48.818;9.806;2023-12-20T05:36:41;96364.78;;;7.74
76347;BMP280;73309;48.818;9.806;2023-12-20T05:39:06;96372.44;;;7.74
76347;BMP280;73309;48.818;9.806;2023-12-20T05:41:32;96373.19;;;7.74
76347;BMP280;73309;48.818;9.806;2023-12-20T05:43:57;96378.06;;;7.74
76347;BMP280;73309;48.818;9.806;2023-12-20T05:46:24;96366.50;;;7.72
76347;BMP280;73309;48.818;9.806;2023-12-20T05:48:49;96370.88;;;7.73
76347;BMP280;73309;48.818;9.806;2023-12-20T05:51:15;96369.63;;;7.74
76347;BMP280;73309;48.818;9.806;2023-12-20T05:53:40;96375.72;;;7.72
76347;BMP280;73309;48.818;9.806;2023-12-20T05:56:08;96379.28;;;7.73
76347;BMP280;73309;48.818;9.806;2023-12-20T05:58:33;96383.38;;;7.72
76347;BMP280;73309;48.818;9.806;2023-12-20T06:00:58;96389.78;;;7.72
76347;BMP280;73309;48.818;9.806;2023-12-20T06:03:25;96363.41;;;7.55
76347;BMP280;73309;48.818;9.806;2023-12-20T06:05:51;96388.97;;;7.72
76347;BMP280;73309;48.818;9.806;2023-12-20T06:08:16;96393.53;;;7.69
76347;BMP280;73309;48.818;9.806;2023-12-20T06:10:41;96396.66;;;7.71
76347;BMP280;73309;48.818;9.806;2023-12-20T06:13:07;96409.44;;;7.72
76347;BMP280;73309;48.818;9.806;2023-12-20T06:15:32;96407.88;;;7.71
76347;BMP280;73309;48.818;9.806;2023-12-20T06:17:58;96415.03;;;7.72
76347;BMP280;73309;48.818;9.806;2023-12-20T06:20:25;96413.50;;;7.71
76347;BMP280;73309;48.818;9.806;2023-12-20T06:22:50;96407.56;;;7.69
76347;BMP280;73309;48.818;9.806;2023-12-20T06:25:16;96403.50;;;7.70
76347;BMP280;73309;48.818;9.806;2023-12-20T06:27:41;96411.91;;;7.70
76347;BMP280;73309;48.818;9.806;2023-12-20T06:30:07;96374.06;;;7.51
76347;BMP280;73309;48.818;9.806;2023-12-20T06:32:33;96413.50;;;7.71
76347;BMP280;73309;48.818;9.806;2023-12-20T06:34:58;96417.53;;;7.70
76347;BMP280;73309;48.818;9.806;2023-12-20T06:37:25;96412.72;;;7.71
76347;BMP280;73309;48.818;9.806;2023-12-20T06:39:50;96409.13;;;7.70
76347;BMP280;73309;48.818;9.806;2023-12-20T06:42:16;96405.44;;;7.64
76347;BMP280;73309;48.818;9.806;2023-12-20T06:44:41;96416.00;;;7.69
76347;BMP280;73309;48.818;9.806;2023-12-20T06:47:07;96419.78;;;7.66
76347;BMP280;73309;48.818;9.806;2023-12-20T06:49:32;96419.13;;;7.71
76347;BMP280;73309;48.818;9.806;2023-12-20T06:51:58;96411.16;;;7.70
76347;BMP280;73309;48.818;9.806;2023-12-20T06:54:24;96412.72;;;7.71
76347;BMP280;73309;48.818;9.806;2023-12-20T06:56:50;96411.91;;;7.70
76347;BMP280;73309;48.818;9.806;2023-12-20T06:59:15;96423.16;;;7.70
76347;BMP280;73309;48.818;9.806;2023-12-20T07:01:40;96442.81;;;7.70
76347;BMP280;73309;48.818;9.806;2023-12-20T07:04:06;96427.22;;;7.69
76347;BMP280;73309;48.818;9.806;2023-12-20T07:06:31;96441.56;;;7.71
76347;BMP280;73309;48.818;9.806;2023-12-20T07:08:56;96434.91;;;7.69
76347;BMP280;73309;48.818;9.806;2023-12-20T07:11:23;96444.06;;;7.69
76347;BMP280;73309;48.818;9.806;2023-12-20T07:13:49;96450.94;;;7.68
76347;BMP280;73309;48.818;9.806;2023-12-20T07:16:14;96449.69;;;7.69
76347;BMP280;73309;48.818;9.806;2023-12-20T07:18:39;96449.69;;;7.69
76347;BMP280;73309;48.818;9.806;2023-12-20T07:21:05;96460.91;;;7.69
76347;BMP280;73309;48.818;9.806;2023-12-20T07:23:30;96460.34;;;7.65
76347;BMP280;73309;48.818;9.806;2023-12-20T07:25:55;96456.09;;;7.70
76347;BMP280;73309;48.818;9.806;2023-12-20T07:28:22;96462.47;;;7.70
76347;BMP280;73309;48.818;9.806;2023-12-20T07:30:48;96461.81;;;7.75
76347;BMP280;73309;48.818;9.806;2023-12-20T07:33:13;96462.41;;;7.79
76347;BMP280;73309;48.818;9.806;2023-12-20T07:35:38;96463.47;;;7.82
76347;BMP280;73309;48.818;9.806;2023-12-20T07:38:04;96473.72;;;7.85
76347;BMP280;73309;48.818;9.806;2023-12-20T07:40:29;96484.97;;;7.85
76347;BMP280;73309;48.818;9.806;2023-12-20T07:42:54;96471.69;;;7.85
76347;BMP280;73309;48.818;9.806;2023-12-20T07:45:21;96478.88;;;7.86
76347;BMP280;73309;48.818;9.806;2023-12-20T07:47:47;96480.91;;;7.86
76347;BMP280;73309;48.818;9.806;2023-12-20T07:50:12;96475.31;;;7.86
76347;BMP280;73309;48.818;9.806;2023-12-20T07:52:37;96486.53;;;7.86
76347;BMP280;73309;48.818;9.806;2023-12-20T07:55:03;96472.50;;;7.86
76347;BMP280;73309;48.818;9.806;2023-12-20T07:57:29;96480.41;;;7.87
76347;BMP280;73309;48.818;9.806;2023-12-20T07:59:54;96474.22;;;7.83
76347;BMP280;73309;48.818;9.806;2023-12-20T08:02:21;96485.28;;;7.87
76347;BMP280;73309;48.818;9.806;2023-12-20T08:04:46;96490.09;;;7.86
76347;BMP280;73309;48.818;9.806;2023-12-20T08:07:11;96483.22;;;7.87
76347;BMP280;73309;48.818;9.806;2023-12-20T08:09:37;96482.75;;;7.89
76347;BMP280;73309;48.818;9.806;2023-12-20T08:12:13;96488.38;;;7.89
76347;BMP280;73309;48.818;9.806;2023-12-20T08:14:38;96486.34;;;7.89
76347;BMP280;73309;48.818;9.806;2023-12-20T08:17:03;96496.78;;;7.89
76347;BMP280;73309;48.818;9.806;2023-12-20T08:19:30;96496.03;;;7.88
76347;BMP280;73309;48.818;9.806;2023-12-20T08:21:55;96504.47;;;7.88
76347;BMP280;73309;48.818;9.806;2023-12-20T08:24:21;96509.56;;;7.90
76347;BMP280;73309;48.818;9.806;2023-12-20T08:26:46;96499.31;;;7.87
76347;BMP280;73309;48.818;9.806;2023-12-20T08:29:12;96505.69;;;7.87
76347;BMP280;73309;48.818;9.806;2023-12-20T08:31:38;96496.09;;;7.79
76347;BMP280;73309;48.818;9.806;2023-12-20T08:34:03;96509.88;;;7.92
76347;BMP280;73309;48.818;9.806;2023-12-20T08:36:30;96514.72;;;7.91
76347;BMP280;73309;48.818;9.806;2023-12-20T08:38:55;96529.03;;;7.93
76347;BMP280;73309;48.818;9.806;2023-12-20T08:41:21;96528.75;;;7.91
76347;BMP280;73309;48.818;9.806;2023-12-20T08:43:46;96526.25;;;7.93
76347;BMP280;73309;48.818;9.806;2023-12-20T08:46:13;96529.56;;;7.92
76347;BMP280;73309;48.818;9.806;2023-12-20T08:48:38;96526.75;;;7.92
76347;BMP280;73309;48.818;9.806;2023-12-20T08:51:03;96538.28;;;7.94
76347;BMP280;73309;48.818;9.806;2023-12-20T08:53:30;96537.47;;;7.93
76347;BMP280;73309;48.818;9.806;2023-12-20T08:55:56;96543.09;;;7.93
76347;BMP280;73309;48.818;9.806;2023-12-20T08:58:21;96536.72;;;7.93
76347;BMP280;73309;48.818;9.806;2023-12-20T09:00:46;96549.50;;;7.94
76347;BMP280;73309;48.818;9.806;2023-12-20T09:03:12;96533.03;;;7.87
76347;BMP280;73309;48.818;9.806;2023-12-20T09:05:37;96545.16;;;7.93
76347;BMP280;73309;48.818;9.806;2023-12-20T09:08:03;96546.22;;;7.95
76347;BMP280;73309;48.818;9.806;2023-12-20T09:10:30;96544.97;;;7.96
76347;BMP280;73309;48.818;9.806;2023-12-20T09:12:55;96549.91;;;8.01
76347;BMP280;73309;48.818;9.806;2023-12-20T09:15:21;96546.91;;;8.05
76347;BMP280;73309;48.818;9.806;2023-12-20T09:17:46;96540.69;;;8.01
76347;BMP280;73309;48.818;9.806;2023-12-20T09:20:12;96537.13;;;8.00
76347;BMP280;73309;48.818;9.806;2023-12-20T09:22:37;96540.22;;;8.02
76347;BMP280;73309;48.818;9.806;2023-12-20T09:25:03;96537.22;;;8.06
76347;BMP280;73309;48.818;9.806;2023-12-20T09:27:30;96538.28;;;8.08
76347;BMP280;73309;48.818;9.806;2023-12-20T09:29:55;96538.22;;;8.17
76347;BMP280;73309;48.818;9.806;2023-12-20T09:32:20;96540.97;;;8.26
76347;BMP280;73309;48.818;9.806;2023-12-20T09:34:47;96541.34;;;8.34
76347;BMP280;73309;48.818;9.806;2023-12-20T09:37:12;96548.34;;;8.38
76347;BMP280;73309;48.818;9.806;2023-12-20T09:39:38;96553.69;;;8.51
76347;BMP280;73309;48.818;9.806;2023-12-20T09:42:04;96549.91;;;8.54
76347;BMP280;73309;48.818;9.806;2023-12-20T09:44:31;96545.53;;;8.53
76347;BMP280;73309;48.818;9.806;2023-12-20T09:46:57;96548.19;;;8.56
76347;BMP280;73309;48.818;9.806;2023-12-20T09:49:23;96555.91;;;8.61
76347;BMP280;73309;48.818;9.806;2023-12-20T09:51:50;96558.03;;;8.81
76347;BMP280;73309;48.818;9.806;2023-12-20T09:54:16;96558.72;;;8.76
76347;BMP280;73309;48.818;9.806;2023-12-20T09:56:42;96552.50;;;9.01
76347;BMP280;73309;48.818;9.806;2023-12-20T09:59:08;96557.84;;;8.99
76347;BMP280;73309;48.818;9.806;2023-12-20T10:01:35;96546.69;;;8.90
76347;BMP280;73309;48.818;9.806;2023-12-20T10:04:01;96544.34;;;8.88
76347;BMP280;73309;48.818;9.806;2023-12-20T10:06:30;96550.78;;;8.89
76347;BMP280;73309;48.818;9.806;2023-12-20T10:08:55;96550.56;;;8.92
76347;BMP280;73309;48.818;9.806;2023-12-20T10:11:20;96563.56;;;8.90
76347;BMP280;73309;48.818;9.806;2023-12-20T10:13:48;96549.56;;;8.95
76347;BMP280;73309;48.818;9.806;2023-12-20T10:16:13;96552.69;;;8.97
76347;BMP280;73309;48.818;9.806;2023-12-20T10:18:40;96545.13;;;9.03
76347;BMP280;73309;48.818;9.806;2023-12-20T10:21:06;96555.56;;;9.17
76347;BMP280;73309;48.818;9.806;2023-12-20T10:23:31;96547.41;;;9.19
76347;BMP280;73309;48.818;9.806;2023-12-20T10:25:57;96536.16;;;9.19
76347;BMP280;73309;48.818;9.806;2023-12-20T10:28:22;96538.28;;;9.24
76347;BMP280;73309;48.818;9.806;2023-12-20T10:30:48;96533.50;;;9.30
76347;BMP280;73309;48.818;9.806;2023-12-20T10:33:13;96525.44;;;9.23
76347;BMP280;73309;48.818;9.806;2023-12-20T10:35:40;96528.56;;;9.25
76347;BMP280;73309;48.818;9.806;2023-12-20T10:38:06;96533.13;;;9.23
76347;BMP280;73309;48.818;9.806;2023-12-20T10:40:34;96524.84;;;9.34
76347;BMP280;73309;48.818;9.806;2023-12-20T10:43:00;96523.25;;;9.47
76347;BMP280;73309;48.818;9.806;2023-12-20T10:45:27;96525.97;;;9.42
76347;BMP280;73309;48.818;9.806;2023-12-20T10:47:52;96524.91;;;9.39
76347;BMP280;73309;48.818;9.806;2023-12-20T10:50:19;96522.03;;;9.34
76347;BMP280;73309;48.818;9.806;2023-12-20T10:52:46;96522.59;;;9.38
76347;BMP280;73309;48.818;9.806;2023-12-20T10:55:12;96524.06;;;9.33
76347;BMP280;73309;48.818;9.806;2023-12-20T10:57:38;96518.16;;;9.31
76347;BMP280;73309;48.818;9.806;2023-12-20T11:00:06;96518.44;;;9.33
76347;BMP280;73309;48.818;9.806;2023-12-20T11:02:39;96512.13;;;9.38
76347;BMP280;73309;48.818;9.806;2023-12-20T11:05:10;96506.22;;;9.36
76347;BMP280;73309;48.818;9.806;2023-12-20T11:07:40;96510.16;;;9.44
76347;BMP280;73309;48.818;9.806;2023-12-20T11:10:15;96505.47;;;9.41
76347;BMP280;73309;48.818;9.806;2023-12-20T11:12:47;96507.44;;;9.35
76347;BMP280;73309;48.818;9.806;2023-12-20T11:15:14;96495.16;;;9.33
76347;BMP280;73309;48.818;9.806;2023-12-20T11:17:40;96475.00;;;9.20
76347;BMP280;73309;48.818;9.806;2023-12-20T11:20:09;96490.75;;;9.32
76347;BMP280;73309;48.818;9.806;2023-12-20T11:22:35;96504.56;;;9.30
76347;BMP280;73309;48.818;9.806;2023-12-20T11:25:04;96495.91;;;9.33
76347;BMP280;73309;48.818;9.806;2023-12-20T11:27:31;96495.00;;;9.42
76347;BMP280;73309;48.818;9.806;2023-12-20T11:29:58;96497.69;;;9.51
76347;BMP280;73309;48.818;9.806;2023-12-20T11:32:29;96503.38;;;9.56
76347;BMP280;73309;48.818;9.806;2023-12-20T11:34:56;96494.66;;;9.54
76347;BMP280;73309;48.818;9.806;2023-12-20T11:37:21;96502.69;;;9.61
76347;BMP280;73309;48.818;9.806;2023-12-20T11:39:54;96487.13;;;9.86
76347;BMP280;73309;48.818;9.806;2023-12-20T11:42:19;96488.03;;;9.77
76347;BMP280;73309;48.818;9.806;2023-12-20T11:44:46;96477.97;;;9.71
76347;BMP280;73309;48.818;9.806;2023-12-20T11:47:12;96489.88;;;9.60
76347;BMP280;73309;48.818;9.806;2023-12-20T11:49:38;96487.06;;;9.60
76347;BMP280;73309;48.818;9.806;2023-12-20T11:52:03;96460.31;;;9.50
76347;BMP280;73309;48.818;9.806;2023-12-20T11:54:30;96475.50;;;9.58
76347;BMP280;73309;48.818;9.806;2023-12-20T11:56:55;96484.47;;;9.57
76347;BMP280;73309;48.818;9.806;2023-12-20T11:59:21;96458.81;;;9.35
76347;BMP280;73309;48.818;9.806;2023-12-20T12:01:51;96481.00;;;9.47
76347;BMP280;73309;48.818;9.806;2023-12-20T12:04:16;96476.09;;;9.42
76347;BMP280;73309;48.818;9.806;2023-12-20T12:06:42;96477.84;;;9.40
76347;BMP280;73309;48.818;9.806;2023-12-20T12:09:07;96481.41;;;9.40
76347;BMP280;73309;48.818;9.806;2023-12-20T12:11:32;96477.25;;;9.36
76347;BMP280;73309;48.818;9.806;2023-12-20T12:13:58;96477.75;;;9.34
76347;BMP280;73309;48.818;9.806;2023-12-20T12:16:23;96472.31;;;9.31
76347;BMP280;73309;48.818;9.806;2023-12-20T12:18:56;96479.44;;;9.26
76347;BMP280;73309;48.818;9.806;2023-12-20T12:21:22;96456.41;;;9.08
76347;BMP280;73309;48.818;9.806;2023-12-20T12:23:47;96474.03;;;9.23
76347;BMP280;73309;48.818;9.806;2023-12-20T12:26:13;96473.94;;;9.17
76347;BMP280;73309;48.818;9.806;2023-12-20T12:28:40;96467.25;;;9.15
76347;BMP280;73309;48.818;9.806;2023-12-20T12:31:05;96474.34;;;9.10
76347;BMP280;73309;48.818;9.806;2023-12-20T12:33:31;96471.25;;;9.08
76347;BMP280;73309;48.818;9.806;2023-12-20T12:35:57;96472.72;;;9.04
76347;BMP280;73309;48.818;9.806;2023-12-20T12:38:24;96457.56;;;9.01
76347;BMP280;73309;48.818;9.806;2023-12-20T12:40:49;96459.34;;;8.99
76347;BMP280;73309;48.818;9.806;2023-12-20T12:43:15;96462.66;;;8.97
76347;BMP280;73309;48.818;9.806;2023-12-20T12:45:40;96463.63;;;8.94
76347;BMP280;73309;48.818;9.806;2023-12-20T12:48:06;96459.25;;;8.93
76347;BMP280;73309;48.818;9.806;2023-12-20T12:50:32;96463.34;;;8.92
76347;BMP280;73309;48.818;9.806;2023-12-20T12:52:59;96459.94;;;8.88
76347;BMP280;73309;48.818;9.806;2023-12-20T12:55:24;96458.78;;;8.95
76347;BMP280;73309;48.818;9.806;2023-12-20T12:57:50;96435.53;;;8.80
76347;BMP280;73309;48.818;9.806;2023-12-20T13:00:15;96453.16;;;8.95
76347;BMP280;73309;48.818;9.806;2023-12-20T13:02:41;96449.56;;;8.94
76347;BMP280;73309;48.818;9.806;2023-12-20T13:05:07;96458.47;;;8.93
76347;BMP280;73309;48.818;9.806;2023-12-20T13:07:32;96454.91;;;8.92
76347;BMP280;73309;48.818;9.806;2023-12-20T13:09:59;96453.63;;;8.93
76347;BMP280;73309;48.818;9.806;2023-12-20T13:12:24;96453.63;;;8.93
76347;BMP280;73309;48.818;9.806;2023-12-20T13:14:50;96432.72;;;8.80
76347;BMP280;73309;48.818;9.806;2023-12-20T13:17:15;96459.47;;;8.90
76347;BMP280;73309;48.818;9.806;2023-12-20T13:19:41;96453.06;;;8.89
76347;BMP280;73309;48.818;9.806;2023-12-20T13:22:06;96448.13;;;8.84
76347;BMP280;73309;48.818;9.806;2023-12-20T13:24:31;96446.19;;;8.76
76347;BMP280;73309;48.818;9.806;2023-12-20T13:26:58;96455.19;;;8.45
76347;BMP280;73309;48.818;9.806;2023-12-20T13:29:24;96404.22;;;8.23
76347;BMP280;73309;48.818;9.806;2023-12-20T13:31:49;96445.16;;;8.59
76347;BMP280;73309;48.818;9.806;2023-12-20T13:34:15;96438.66;;;8.67
76347;BMP280;73309;48.818;9.806;2023-12-20T13:36:40;96438.06;;;8.78
76347;BMP280;73309;48.818;9.806;2023-12-20T13:39:06;96424.91;;;8.69
76347;BMP280;73309;48.818;9.806;2023-12-20T13:41:31;96450.06;;;8.78
76347;BMP280;73309;48.818;9.806;2023-12-20T13:43:58;96439.22;;;8.71
76347;BMP280;73309;48.818;9.806;2023-12-20T13:46:23;96453.59;;;8.73
76347;BMP280;73309;48.818;9.806;2023-12-20T13:48:49;96455.16;;;8.74
76347;BMP280;73309;48.818;9.806;2023-12-20T13:51:14;96456.09;;;8.71
76347;BMP280;73309;48.818;9.806;2023-12-20T13:53:39;96438.78;;;8.58
76347;BMP280;73309;48.818;9.806;2023-12-20T13:56:05;96457.84;;;8.69
76347;BMP280;73309;48.818;9.806;2023-12-20T13:58:31;96470.66;;;8.70
76347;BMP280;73309;48.818;9.806;2023-12-20T14:00:58;96469.59;;;8.67
76347;BMP280;73309;48.818;9.806;2023-12-20T14:03:23;96462.41;;;8.66
76347;BMP280;73309;48.818;9.806;2023-12-20T14:05:48;96460.59;;;8.63
76347;BMP280;73309;48.818;9.806;2023-12-20T14:08:14;96462.94;;;8.65
76347;BMP280;73309;48.818;9.806;2023-12-20T14:10:39;96467.19;;;8.60
76347;BMP280;73309;48.818;9.806;2023-12-20T14:13:04;96464.84;;;8.59